7V5 weather

Brush Municipal Airport
Brush, Colorado, United States

Public forecast

Using degrees Fahrenheit for public forecast. Weather courtesy of forecast.io.

Closest aviation weather report (METAR) to Brush Municipal Airport

Closest report is Fort Morgan Municipal Airport, 11.0 nm (20.4 km) WNW. Retrieved 2019/11/19 19:35 UTC (0 seconds ago):

KFMM 191935Z AUTO 20004KT 10SM CLR 17/M02 A2978 RMK AO2 T01651020

Closest aviation forecast (TAF) to Brush Municipal Airport

Closest forecast is Denver International Airport, 55.7 nm (103.1 km) WSW. Retrieved 2019/11/19 18:42 UTC (48 minutes ago):

TAF KDEN 191739Z 1918/2024 23007KT P6SM FEW110 BKN220 FM192000 12008KT P6SM FEW110 BKN220 FM200200 20010KT P6SM FEW110 BKN220 FM201200 32010KT P6SM SCT090 BKN180 FM201700 04017G24KT P6SM SCT050 OVC090 FM202000 04017G24KT P6SM SCT030 OVC050 FM202200 04015KT 4SM -RASN BR SCT015 OVC030